Reliance, Texas
Current Conditions -  °F | °C
As of 8:34 AM on Sunday 23 Nov 2014 (Local Time) from KCLL Reporting Station
Scattered Clouds Scattered Clouds  
Wind Chill: 59°   Ceiling: Unl
Heat Index: 59°   Visibility: 10mi
Dew Point: 58°   Wind: 7mph
Humidity: 96%   Direction: 230°SW
Pressure: 29.66"   Gusts: NA
Location:  30.6361°N, 96.3666°W
Report Text: KCLL 231434Z 23006KT 10SM SCT006 15/14 A2966 RMK AO2 T01500144 $
Loading
Personal Weather Stations






























Interactive Weather Map New forecast layout! Learn more

10-Day Weather Forecast

Advertisements
Track Severe Weather on mobile